createdAt,value
2022-12-07T00:01:22.330Z,1.65
2022-12-07T00:03:52.139Z,1.63
2022-12-07T00:06:21.499Z,1.60
2022-12-07T00:08:50.025Z,1.58
2022-12-07T00:11:22.324Z,1.55
2022-12-07T00:13:54.304Z,1.53
2022-12-07T00:16:24.126Z,1.52
2022-12-07T00:18:52.338Z,1.51
2022-12-07T00:21:22.838Z,1.50
2022-12-07T00:23:52.792Z,1.49
2022-12-07T00:26:23.946Z,1.48
2022-12-07T00:28:53.525Z,1.48
2022-12-07T00:31:23.523Z,1.48
2022-12-07T00:33:51.770Z,1.49
2022-12-07T00:36:26.637Z,1.50
2022-12-07T00:38:55.862Z,1.50
2022-12-07T00:41:26.983Z,1.52
2022-12-07T00:43:55.596Z,1.53
2022-12-07T00:46:24.813Z,1.55
2022-12-07T00:48:54.189Z,1.55
2022-12-07T00:51:24.201Z,1.55
2022-12-07T00:53:52.783Z,1.58
2022-12-07T00:56:23.152Z,1.59
2022-12-07T00:58:57.069Z,1.62
2022-12-07T01:01:26.012Z,1.65
2022-12-07T01:03:55.485Z,1.68
2022-12-07T01:06:25.050Z,1.73
2022-12-07T01:08:53.392Z,1.79
2022-12-07T01:11:23.327Z,1.83
2022-12-07T01:13:52.143Z,1.86
2022-12-07T01:16:22.591Z,1.91
2022-12-07T01:18:52.532Z,1.96
2022-12-07T01:21:22.484Z,2.01
2022-12-07T01:23:51.093Z,2.06
2022-12-07T01:26:21.778Z,2.12
2022-12-07T01:28:50.018Z,2.18
2022-12-07T01:31:19.974Z,2.24
2022-12-07T01:33:52.870Z,2.29
2022-12-07T01:36:22.492Z,2.34
2022-12-07T01:38:53.551Z,2.40
2022-12-07T01:41:22.958Z,2.44
2022-12-07T01:44:21.772Z,2.49
2022-12-07T01:46:51.187Z,2.51
2022-12-07T01:49:29.452Z,2.52
2022-12-07T01:52:02.806Z,2.51
2022-12-07T01:54:30.932Z,2.49
2022-12-07T01:56:59.817Z,2.46
2022-12-07T01:59:28.261Z,2.45
2022-12-07T02:01:57.551Z,2.43
2022-12-07T02:04:27.481Z,2.43
2022-12-07T02:06:56.717Z,2.43
2022-12-07T02:09:24.978Z,2.41
2022-12-07T02:11:53.664Z,2.39
2022-12-07T02:14:21.968Z,2.37
2022-12-07T02:17:03.131Z,2.36
2022-12-07T02:19:59.743Z,2.38
2022-12-07T02:22:51.249Z,2.33
2022-12-07T02:25:31.544Z,2.29
2022-12-07T02:28:06.699Z,2.30
2022-12-07T02:30:38.004Z,2.28
2022-12-07T02:33:08.664Z,2.23
2022-12-07T02:35:41.782Z,2.18
2022-12-07T02:38:14.146Z,2.08
2022-12-07T02:40:45.921Z,2.00
2022-12-07T02:43:18.884Z,1.96
2022-12-07T02:45:49.647Z,1.87
2022-12-07T02:48:19.363Z,1.85
2022-12-07T02:50:50.174Z,1.85
2022-12-07T02:53:34.716Z,1.81
2022-12-07T02:56:05.064Z,1.72
2022-12-07T02:58:42.764Z,1.68
2022-12-07T03:01:23.693Z,1.63
2022-12-07T03:04:00.900Z,1.63
2022-12-07T03:06:34.002Z,1.56
2022-12-07T03:09:09.234Z,1.51
2022-12-07T03:11:45.088Z,1.48
2022-12-07T03:14:18.043Z,1.47
2022-12-07T03:16:52.157Z,1.42
2022-12-07T03:19:22.241Z,1.37
2022-12-07T03:21:55.932Z,1.38
2022-12-07T03:24:26.720Z,1.33
2022-12-07T03:26:58.368Z,1.30
2022-12-07T03:29:30.459Z,1.31
2022-12-07T03:32:03.385Z,1.35
2022-12-07T03:34:34.686Z,1.38
2022-12-07T03:37:05.828Z,1.37
2022-12-07T03:39:39.157Z,1.33
2022-12-07T03:42:09.960Z,1.35
2022-12-07T03:44:38.684Z,1.39
2022-12-07T03:47:13.619Z,1.41
2022-12-07T03:49:45.688Z,1.42
2022-12-07T03:52:21.008Z,1.39
2022-12-07T03:54:54.274Z,1.38
2022-12-07T03:57:23.223Z,1.39
2022-12-07T03:59:51.972Z,1.36
2022-12-07T04:02:21.861Z,1.31
2022-12-07T04:04:49.999Z,1.28
2022-12-07T04:07:18.155Z,1.27
2022-12-07T04:09:46.371Z,1.19
2022-12-07T04:12:14.586Z,1.14
2022-12-07T04:14:42.736Z,1.09
2022-12-07T04:17:11.031Z,1.07
2022-12-07T04:19:40.598Z,1.10
2022-12-07T04:22:09.118Z,1.13
2022-12-07T04:24:37.292Z,1.14
2022-12-07T04:27:05.478Z,1.14
2022-12-07T04:29:33.599Z,1.17
2022-12-07T04:32:01.833Z,1.20
2022-12-07T04:34:30.116Z,1.22
2022-12-07T04:36:59.673Z,1.28
2022-12-07T04:39:29.110Z,1.32
2022-12-07T04:41:58.280Z,1.34
2022-12-07T04:44:27.493Z,1.34
2022-12-07T04:46:55.907Z,1.33
2022-12-07T04:49:24.147Z,1.31
2022-12-07T04:51:52.752Z,1.29
2022-12-07T04:54:22.554Z,1.26
2022-12-07T04:56:50.699Z,1.24
2022-12-07T04:59:19.120Z,1.21
2022-12-07T05:01:47.333Z,1.19
2022-12-07T05:04:16.993Z,1.15
2022-12-07T05:06:45.154Z,1.11
2022-12-07T05:09:13.322Z,1.07
2022-12-07T05:11:42.996Z,1.02
2022-12-07T05:14:14.524Z,0.99
2022-12-07T05:16:43.262Z,0.95
2022-12-07T05:19:12.359Z,0.92
2022-12-07T05:21:40.693Z,0.88
2022-12-07T05:24:09.786Z,0.83
2022-12-07T05:26:38.177Z,0.80
2022-12-07T05:29:08.061Z,0.76
2022-12-07T05:31:36.236Z,0.74
2022-12-07T05:34:04.461Z,0.71
2022-12-07T05:36:33.091Z,0.71
2022-12-07T05:39:01.330Z,0.69
2022-12-07T05:41:52.342Z,0.65
2022-12-07T05:44:22.043Z,0.63
2022-12-07T05:46:50.243Z,0.61
2022-12-07T05:49:18.572Z,0.59
2022-12-07T05:51:46.792Z,0.56
2022-12-07T05:54:14.937Z,0.55
2022-12-07T05:56:43.075Z,0.53
2022-12-07T05:59:25.164Z,0.51
2022-12-07T06:01:56.190Z,0.48
2022-12-07T06:04:25.002Z,0.47
2022-12-07T06:06:53.358Z,0.43
2022-12-07T06:09:21.949Z,0.41
2022-12-07T06:12:07.691Z,0.38
2022-12-07T06:14:36.870Z,0.36
2022-12-07T06:17:07.013Z,0.32
2022-12-07T06:19:36.218Z,0.30
2022-12-07T06:22:05.532Z,0.28
2022-12-07T06:24:34.144Z,0.29
2022-12-07T06:27:02.400Z,0.29
2022-12-07T06:29:30.605Z,0.27
2022-12-07T06:31:58.935Z,0.26
2022-12-07T06:34:28.666Z,0.24
2022-12-07T06:36:57.075Z,0.24
2022-12-07T06:39:27.366Z,0.21
2022-12-07T06:41:55.881Z,0.21
2022-12-07T06:44:24.522Z,0.20
2022-12-07T06:47:06.737Z,0.21
2022-12-07T06:49:42.133Z,0.21
2022-12-07T06:52:10.308Z,0.22
2022-12-07T06:54:38.432Z,0.23
2022-12-07T06:57:06.547Z,0.23
2022-12-07T06:59:34.711Z,0.26
2022-12-07T07:02:02.866Z,0.30
2022-12-07T07:04:31.036Z,0.32
2022-12-07T07:07:00.636Z,0.34
2022-12-07T07:09:28.822Z,0.36
2022-12-07T07:11:56.986Z,0.39
2022-12-07T07:14:25.158Z,0.40
2022-12-07T07:16:53.364Z,0.41
2022-12-07T07:19:21.544Z,0.41
2022-12-07T07:21:49.706Z,0.43
2022-12-07T07:24:19.198Z,0.44
2022-12-07T07:26:47.362Z,0.46
2022-12-07T07:29:15.673Z,0.46
2022-12-07T07:31:43.848Z,0.47
2022-12-07T07:34:12.045Z,0.48
2022-12-07T07:36:40.194Z,0.49
2022-12-07T07:39:08.364Z,0.49
2022-12-07T07:41:38.063Z,0.49
2022-12-07T07:44:06.246Z,0.50
2022-12-07T07:46:34.548Z,0.50
2022-12-07T07:49:02.793Z,0.53
2022-12-07T07:51:30.979Z,0.53
2022-12-07T07:53:59.121Z,0.56
2022-12-07T07:56:27.276Z,0.59
2022-12-07T07:58:57.092Z,0.63
2022-12-07T08:01:25.383Z,0.65
2022-12-07T08:03:53.586Z,0.70
2022-12-07T08:06:21.852Z,0.75
2022-12-07T08:08:50.002Z,0.78
2022-12-07T08:11:18.188Z,0.80
2022-12-07T08:13:47.481Z,0.85
2022-12-07T08:16:18.016Z,0.89
2022-12-07T08:18:46.246Z,0.94
2022-12-07T08:21:16.112Z,0.99
2022-12-07T08:23:44.492Z,1.02
2022-12-07T08:26:16.298Z,1.07
2022-12-07T08:28:46.001Z,1.10
2022-12-07T08:31:17.946Z,1.14
2022-12-07T08:33:47.025Z,1.17
2022-12-07T08:36:15.728Z,1.20
2022-12-07T08:39:01.365Z,1.24
2022-12-07T08:41:32.306Z,1.26
2022-12-07T08:44:00.494Z,1.31
2022-12-07T08:46:35.578Z,1.34
2022-12-07T08:49:06.871Z,1.35
2022-12-07T08:51:35.125Z,1.38
2022-12-07T08:54:06.320Z,1.42
2022-12-07T08:56:34.863Z,1.44
2022-12-07T08:59:03.079Z,1.47
2022-12-07T09:01:32.921Z,1.48
2022-12-07T09:04:01.191Z,1.52
2022-12-07T09:06:29.886Z,1.56
2022-12-07T09:09:00.478Z,1.58
2022-12-07T09:11:29.196Z,1.61
2022-12-07T09:13:57.752Z,1.63
2022-12-07T09:16:25.981Z,1.64
2022-12-07T09:18:55.595Z,1.67
2022-12-07T09:21:23.878Z,1.70
2022-12-07T09:23:52.027Z,1.74
2022-12-07T09:26:20.164Z,1.76
2022-12-07T09:28:48.331Z,1.82
2022-12-07T09:31:25.087Z,1.83
2022-12-07T09:33:59.818Z,1.87
2022-12-07T09:36:28.705Z,1.92
2022-12-07T09:38:57.076Z,1.94
2022-12-07T09:41:27.594Z,1.97
2022-12-07T09:44:00.326Z,1.97
2022-12-07T09:46:28.594Z,1.97
2022-12-07T09:48:58.151Z,1.97
2022-12-07T09:51:29.181Z,1.99
2022-12-07T09:53:58.822Z,1.97
2022-12-07T09:56:27.324Z,1.99
2022-12-07T09:59:00.469Z,2.02
2022-12-07T10:01:31.426Z,2.02
2022-12-07T10:04:11.611Z,2.05
2022-12-07T10:06:39.888Z,2.08
2022-12-07T10:09:12.545Z,2.08
2022-12-07T10:12:07.390Z,2.10
2022-12-07T10:15:06.218Z,2.14
2022-12-07T10:17:34.790Z,2.19
2022-12-07T10:20:20.044Z,2.22
2022-12-07T10:22:59.233Z,2.23
2022-12-07T10:25:29.947Z,2.26
2022-12-07T10:28:17.179Z,2.27
2022-12-07T10:30:50.725Z,2.30
2022-12-07T10:33:34.133Z,2.35
2022-12-07T10:36:18.521Z,2.36
2022-12-07T10:38:49.024Z,2.40
2022-12-07T10:41:17.566Z,2.44
2022-12-07T10:43:50.420Z,2.47
2022-12-07T10:46:38.527Z,2.48
2022-12-07T10:49:20.215Z,2.48
2022-12-07T10:51:57.127Z,2.47
2022-12-07T10:54:33.327Z,2.47
2022-12-07T10:57:24.720Z,2.50
2022-12-07T11:00:02.596Z,2.54
2022-12-07T11:02:43.543Z,2.56
2022-12-07T11:05:21.222Z,2.56
2022-12-07T11:07:59.500Z,2.61
2022-12-07T11:10:32.692Z,2.70
2022-12-07T11:15:45.681Z,2.36
2022-12-07T11:18:24.024Z,3.13
2022-12-07T11:21:05.648Z,2.76
2022-12-07T11:23:49.912Z,2.67
2022-12-07T11:26:35.055Z,2.62
2022-12-07T11:29:30.705Z,2.62
2022-12-07T11:32:24.044Z,2.71
2022-12-07T11:35:05.323Z,2.69
2022-12-07T11:40:20.080Z,2.70
2022-12-07T11:42:55.726Z,2.69
2022-12-07T11:45:28.902Z,2.72
2022-12-07T11:48:03.671Z,2.73
2022-12-07T11:50:39.395Z,2.72
2022-12-07T11:53:19.150Z,2.71
2022-12-07T11:55:55.069Z,2.70
2022-12-07T11:58:44.259Z,2.71
2022-12-07T12:01:34.692Z,2.72
2022-12-07T12:04:19.072Z,2.72
2022-12-07T12:06:48.001Z,2.76
2022-12-07T12:15:51.107Z,2.72
2022-12-07T12:18:40.638Z,2.74
2022-12-07T12:21:17.762Z,2.72
2022-12-07T12:23:52.114Z,2.72
2022-12-07T12:26:23.827Z,2.68
2022-12-07T12:28:59.805Z,2.68
2022-12-07T12:31:42.381Z,2.69
2022-12-07T12:34:33.329Z,2.68
2022-12-07T12:37:03.165Z,2.70
2022-12-07T12:39:31.582Z,2.73
2022-12-07T12:42:07.768Z,2.70
2022-12-07T12:45:22.672Z,2.64
2022-12-07T12:48:01.190Z,2.62
2022-12-07T12:50:33.590Z,2.61
2022-12-07T12:53:23.777Z,2.57
2022-12-07T12:56:36.164Z,2.55
2022-12-07T12:59:28.499Z,2.53
2022-12-07T13:02:09.477Z,2.54
2022-12-07T13:05:01.992Z,2.49
2022-12-07T13:08:00.823Z,2.48
2022-12-07T13:10:47.253Z,2.45
2022-12-07T13:13:38.589Z,2.42
2022-12-07T13:16:49.769Z,2.35
2022-12-07T13:20:03.172Z,2.25
2022-12-07T13:22:53.921Z,2.18
2022-12-07T13:25:33.986Z,2.14
2022-12-07T13:28:18.804Z,2.10
2022-12-07T13:31:00.441Z,2.08
2022-12-07T13:33:31.193Z,2.02
2022-12-07T13:36:01.367Z,2.01
2022-12-07T13:38:33.848Z,1.96
2022-12-07T13:41:14.645Z,1.93
2022-12-07T13:43:55.566Z,1.89
2022-12-07T13:46:33.159Z,1.87
2022-12-07T13:49:01.636Z,1.86
2022-12-07T13:51:36.736Z,1.87
2022-12-07T13:54:14.071Z,1.84
2022-12-07T13:56:43.597Z,1.82
2022-12-07T13:59:21.144Z,1.77
2022-12-07T14:01:52.461Z,1.75
2022-12-07T14:04:37.929Z,1.68
2022-12-07T14:07:24.722Z,1.61
2022-12-07T14:09:59.644Z,1.59
2022-12-07T14:12:30.148Z,1.56
2022-12-07T14:15:03.305Z,1.51
2022-12-07T14:17:31.929Z,1.45
2022-12-07T14:20:01.432Z,1.44
2022-12-07T14:22:34.702Z,1.41
2022-12-07T14:25:22.780Z,1.37
2022-12-07T14:27:56.894Z,1.34
2022-12-07T14:30:30.915Z,1.34
2022-12-07T14:33:02.841Z,1.32
2022-12-07T14:35:32.882Z,1.31
2022-12-07T14:38:01.585Z,1.30
2022-12-07T14:40:32.551Z,1.29
2022-12-07T14:43:04.658Z,1.29
2022-12-07T14:45:34.642Z,1.27
2022-12-07T14:53:49.886Z,1.20
2022-12-07T14:56:21.997Z,1.20
2022-12-07T14:58:50.391Z,1.21
2022-12-07T15:01:20.232Z,1.17
2022-12-07T15:03:48.849Z,1.13
2022-12-07T15:06:19.000Z,1.09
2022-12-07T15:08:47.573Z,1.04
2022-12-07T15:11:16.449Z,1.02
2022-12-07T15:14:02.453Z,0.98
2022-12-07T15:16:52.547Z,0.96
2022-12-07T15:19:28.430Z,0.93
2022-12-07T15:21:58.201Z,0.90
2022-12-07T15:24:26.388Z,0.86
2022-12-07T15:26:54.956Z,0.83
2022-12-07T15:29:24.054Z,0.81
2022-12-07T15:31:56.317Z,0.79
2022-12-07T15:34:26.300Z,0.76
2022-12-07T15:36:54.526Z,0.76
2022-12-07T15:39:23.146Z,0.73
2022-12-07T15:41:51.492Z,0.71
2022-12-07T15:44:37.466Z,0.68
2022-12-07T15:47:07.659Z,0.67
2022-12-07T15:49:35.963Z,0.65
2022-12-07T15:52:04.198Z,0.63
2022-12-07T15:54:33.291Z,0.63
2022-12-07T15:57:01.859Z,0.62
2022-12-07T15:59:30.598Z,0.63
2022-12-07T16:01:59.062Z,0.61
2022-12-07T16:04:29.328Z,0.61
2022-12-07T16:06:57.550Z,0.62
2022-12-07T16:09:25.736Z,0.61
2022-12-07T16:11:54.094Z,0.60
2022-12-07T16:14:22.420Z,0.59
2022-12-07T16:16:50.602Z,0.57
2022-12-07T16:19:18.834Z,0.57
2022-12-07T16:21:48.373Z,0.55
2022-12-07T16:24:17.303Z,0.53
2022-12-07T16:26:49.871Z,0.51
2022-12-07T16:29:20.540Z,0.48
2022-12-07T16:31:49.362Z,0.45
2022-12-07T16:34:17.866Z,0.42
2022-12-07T16:39:36.280Z,0.35
2022-12-07T16:42:04.901Z,0.32
2022-12-07T16:44:33.552Z,0.28
2022-12-07T16:47:02.590Z,0.25
2022-12-07T16:49:31.014Z,0.21
2022-12-07T16:52:18.767Z,0.17
2022-12-07T16:54:49.676Z,0.15
2022-12-07T16:57:22.407Z,0.12
2022-12-07T16:59:51.484Z,0.08
2022-12-07T17:02:20.357Z,0.06
2022-12-07T17:04:48.570Z,0.04
2022-12-07T17:07:16.759Z,0.01
2022-12-07T17:09:44.916Z,-0.04
2022-12-07T17:12:14.494Z,-0.08
2022-12-07T17:15:00.410Z,-0.10
2022-12-07T17:17:28.738Z,-0.14
2022-12-07T17:19:56.879Z,-0.15
2022-12-07T17:22:25.031Z,-0.17
2022-12-07T17:24:53.646Z,-0.19
2022-12-07T17:27:23.232Z,-0.19
2022-12-07T17:29:51.436Z,-0.21
2022-12-07T17:32:19.596Z,-0.21
2022-12-07T17:34:47.768Z,-0.22
2022-12-07T17:37:16.001Z,-0.22
2022-12-07T17:39:44.145Z,-0.23
2022-12-07T17:42:29.988Z,-0.22
2022-12-07T17:44:59.831Z,-0.24
2022-12-07T17:47:28.028Z,-0.24
2022-12-07T17:49:56.253Z,-0.26
2022-12-07T17:52:41.849Z,-0.26
2022-12-07T17:55:10.349Z,-0.31
2022-12-07T17:57:38.629Z,-0.32
2022-12-07T18:00:09.878Z,-0.35
2022-12-07T18:02:38.248Z,-0.36
2022-12-07T18:05:07.220Z,-0.37
2022-12-07T18:07:35.472Z,-0.39
2022-12-07T18:10:07.297Z,-0.39
2022-12-07T18:12:35.465Z,-0.39
2022-12-07T18:15:04.017Z,-0.40
2022-12-07T18:17:34.018Z,-0.40
2022-12-07T18:20:02.167Z,-0.41
2022-12-07T18:22:30.352Z,-0.40
2022-12-07T18:24:58.508Z,-0.41
2022-12-07T18:27:26.639Z,-0.41
2022-12-07T18:29:55.825Z,-0.40
2022-12-07T18:32:24.156Z,-0.39
2022-12-07T18:34:54.157Z,-0.40
2022-12-07T18:37:27.371Z,-0.40
2022-12-07T18:39:56.431Z,-0.39
2022-12-07T18:42:24.731Z,-0.39
2022-12-07T18:44:52.913Z,-0.38
2022-12-07T18:47:21.112Z,-0.38
2022-12-07T18:49:49.221Z,-0.38
2022-12-07T18:52:18.761Z,-0.41
2022-12-07T18:54:48.043Z,-0.39
2022-12-07T18:57:16.196Z,-0.38
2022-12-07T18:59:47.217Z,-0.41
2022-12-07T19:02:15.433Z,-0.40
2022-12-07T19:04:44.643Z,-0.41
2022-12-07T19:07:13.114Z,-0.41
2022-12-07T19:09:42.800Z,-0.41
2022-12-07T19:12:13.316Z,-0.41
2022-12-07T19:14:41.549Z,-0.41
2022-12-07T19:17:11.860Z,-0.43
2022-12-07T19:19:41.805Z,-0.42
2022-12-07T19:22:10.682Z,-0.43
2022-12-07T19:24:39.114Z,-0.42
2022-12-07T19:27:09.432Z,-0.42
2022-12-07T19:29:37.706Z,-0.41
2022-12-07T19:32:08.948Z,-0.40
2022-12-07T19:34:37.653Z,-0.40
2022-12-07T19:37:06.533Z,-0.38
2022-12-07T19:39:35.027Z,-0.39
2022-12-07T19:42:03.198Z,-0.37
2022-12-07T19:44:34.079Z,-0.36
2022-12-07T19:47:05.294Z,-0.36
2022-12-07T19:49:35.567Z,-0.35
2022-12-07T19:52:06.050Z,-0.35
2022-12-07T19:54:34.529Z,-0.35
2022-12-07T19:57:04.392Z,-0.35
2022-12-07T19:59:35.122Z,-0.35
2022-12-07T20:02:03.410Z,-0.35
2022-12-07T20:04:35.621Z,-0.36
2022-12-07T20:07:05.210Z,-0.36
2022-12-07T20:09:33.493Z,-0.36
2022-12-07T20:12:24.448Z,-0.35
2022-12-07T20:14:54.081Z,-0.34
2022-12-07T20:17:22.423Z,-0.35
2022-12-07T20:19:50.660Z,-0.34
2022-12-07T20:22:18.817Z,-0.37
2022-12-07T20:24:46.971Z,-0.36
2022-12-07T20:27:15.918Z,-0.36
2022-12-07T20:29:44.237Z,-0.37
2022-12-07T20:32:14.210Z,-0.39
2022-12-07T20:34:43.518Z,-0.37
2022-12-07T20:37:11.647Z,-0.40
2022-12-07T20:39:39.892Z,-0.41
2022-12-07T20:42:21.921Z,-0.41
2022-12-07T20:44:50.458Z,-0.42
2022-12-07T20:47:19.981Z,-0.43
2022-12-07T20:49:48.112Z,-0.43
2022-12-07T20:52:17.576Z,-0.43
2022-12-07T20:54:45.715Z,-0.41
2022-12-07T20:57:14.004Z,-0.41
2022-12-07T20:59:42.308Z,-0.42
2022-12-07T21:02:12.714Z,-0.42
2022-12-07T21:04:42.575Z,-0.40
2022-12-07T21:07:10.814Z,-0.36
2022-12-07T21:09:39.223Z,-0.35
2022-12-07T21:12:11.207Z,-0.33
2022-12-07T21:14:41.456Z,-0.31
2022-12-07T21:17:09.977Z,-0.30
2022-12-07T21:19:38.428Z,-0.28
2022-12-07T21:22:07.935Z,-0.25
2022-12-07T21:24:37.739Z,-0.25
2022-12-07T21:27:05.980Z,-0.24
2022-12-07T21:29:43.662Z,-0.23
2022-12-07T21:32:13.471Z,-0.21
2022-12-07T21:34:41.696Z,-0.19
2022-12-07T21:37:11.393Z,-0.18
2022-12-07T21:39:39.573Z,-0.14
2022-12-07T21:42:07.733Z,-0.11
2022-12-07T21:44:35.973Z,-0.11
2022-12-07T21:47:04.183Z,-0.09
2022-12-07T21:49:35.419Z,-0.07
2022-12-07T21:52:03.631Z,-0.07
2022-12-07T21:54:33.625Z,-0.05
2022-12-07T21:57:01.723Z,-0.03
2022-12-07T21:59:30.020Z,0.01
2022-12-07T22:01:58.258Z,0.04
2022-12-07T22:04:27.877Z,0.07
2022-12-07T22:06:57.026Z,0.10
2022-12-07T22:09:25.200Z,0.13
2022-12-07T22:11:54.699Z,0.15
2022-12-07T22:14:40.267Z,0.18
2022-12-07T22:17:08.392Z,0.18
2022-12-07T22:19:36.518Z,0.18
2022-12-07T22:22:04.676Z,0.18
2022-12-07T22:24:33.866Z,0.20
2022-12-07T22:27:03.376Z,0.20
2022-12-07T22:29:31.535Z,0.24
2022-12-07T22:32:01.400Z,0.25
2022-12-07T22:34:37.650Z,0.28
2022-12-07T22:37:05.755Z,0.30
2022-12-07T22:39:33.879Z,0.31
2022-12-07T22:42:03.512Z,0.29
2022-12-07T22:44:31.633Z,0.28
2022-12-07T22:46:59.855Z,0.26
2022-12-07T22:49:28.865Z,0.27
2022-12-07T22:51:57.123Z,0.27
2022-12-07T22:54:25.241Z,0.25
2022-12-07T22:56:53.386Z,0.25
2022-12-07T22:59:22.929Z,0.25
2022-12-07T23:01:51.062Z,0.23
2022-12-07T23:04:19.275Z,0.24
2022-12-07T23:06:47.524Z,0.22
2022-12-07T23:09:15.694Z,0.20
2022-12-07T23:12:01.713Z,0.21
2022-12-07T23:14:33.422Z,0.21
2022-12-07T23:17:02.367Z,0.22
2022-12-07T23:19:30.884Z,0.22
2022-12-07T23:21:59.049Z,0.22
2022-12-07T23:24:28.126Z,0.23
2022-12-07T23:26:56.323Z,0.23
2022-12-07T23:29:24.487Z,0.24
2022-12-07T23:31:54.097Z,0.25
2022-12-07T23:34:22.345Z,0.28
2022-12-07T23:36:50.455Z,0.28
2022-12-07T23:39:18.654Z,0.28
2022-12-07T23:41:46.775Z,0.29
2022-12-07T23:44:14.924Z,0.31
2022-12-07T23:46:43.150Z,0.32
2022-12-07T23:49:13.793Z,0.34
2022-12-07T23:51:42.009Z,0.36
2022-12-07T23:54:11.921Z,0.37
2022-12-07T23:56:40.102Z,0.37
2022-12-07T23:59:08.249Z,0.36
